Terminal Aerodrome Forecast
Issued by NWS Wilmington, NC

Home | Current Version | Previous Version | Text Only | Print | Product List | Glossary On
Versions: 1 2 3 4 5 6 7 8 9 10 11 12 13 14 15 16 17 18 19 20 21 22 23
000
FTUS42 KILM 270523
TAFMYR
TAF
KMYR 270523Z 2706/2806 20011KT P6SM -SHRA OVC100
     FM270700 22008KT 5SM -SHRA BR FEW006 BKN040 OVC100
      TEMPO 2707/2710 3SM SHRA BR BKN006 BKN015
     FM271000 24008KT 6SM -RA BKN006 OVC090
      TEMPO 2715/2717 24025KT 1SM +TSRA BKN012CB
     FM271700 34012G20KT 6SM -RA BKN006 OVC012
      AMD LTD TO CLD VIS AND WIND TIL 271100=

USA.gov is the U.S. government's official web portal to all federal, state and local government web resources and services.